createdAt,value
2022-09-24T00:01:40.618Z,2.17
2022-09-24T00:04:11.640Z,1.75
2022-09-24T00:06:44.532Z,2.50
2022-09-24T00:09:14.060Z,2.50
2022-09-24T00:11:43.585Z,2.20
2022-09-24T00:14:11.145Z,2.25
2022-09-24T00:16:40.004Z,2.17
2022-09-24T00:19:07.657Z,2.17
2022-09-24T00:21:36.294Z,2.12
2022-09-24T00:24:09.578Z,2.12
2022-09-24T00:26:52.159Z,2.10
2022-09-24T00:29:24.285Z,2.25
2022-09-24T00:31:52.776Z,2.40
2022-09-24T00:34:21.200Z,2.25
2022-09-24T00:36:48.655Z,1.92
2022-09-24T00:39:16.595Z,1.90
2022-09-24T00:41:47.851Z,1.83
2022-09-24T00:44:47.120Z,1.95
2022-09-24T00:47:31.464Z,1.80
2022-09-24T00:50:10.082Z,2.00
2022-09-24T00:52:44.768Z,2.78
2022-09-24T00:55:13.382Z,1.98
2022-09-24T00:57:41.971Z,1.90
2022-09-24T01:00:10.484Z,1.80
2022-09-24T01:02:39.365Z,2.12
2022-09-24T01:05:07.192Z,1.70
2022-09-24T01:07:35.343Z,2.00
2022-09-24T01:10:03.381Z,2.30
2022-09-24T01:12:40.723Z,2.35
2022-09-24T01:15:17.029Z,2.08
2022-09-24T01:17:59.807Z,2.30
2022-09-24T01:20:41.150Z,2.05
2022-09-24T01:23:30.410Z,1.85
2022-09-24T01:26:19.455Z,1.90
2022-09-24T01:29:21.604Z,1.67
2022-09-24T01:32:11.522Z,1.65
2022-09-24T01:34:49.517Z,1.65
2022-09-24T01:37:19.019Z,1.73
2022-09-24T01:39:47.186Z,1.75
2022-09-24T01:42:14.880Z,1.85
2022-09-24T01:44:44.616Z,1.55
2022-09-24T01:47:34.154Z,1.62
2022-09-24T01:50:02.981Z,1.80
2022-09-24T01:52:46.032Z,2.03
2022-09-24T01:57:48.385Z,1.73
2022-09-24T02:00:18.288Z,1.70
2022-09-24T02:03:06.019Z,1.92
2022-09-24T02:05:41.749Z,2.00
2022-09-24T02:08:14.137Z,2.67
2022-09-24T02:13:15.601Z,2.30
2022-09-24T02:15:46.734Z,2.03
2022-09-24T02:18:17.611Z,2.60
2022-09-24T02:20:45.805Z,1.90
2022-09-24T02:23:15.137Z,1.95
2022-09-24T02:25:48.879Z,1.95
2022-09-24T02:28:18.320Z,2.12
2022-09-24T02:31:13.265Z,2.25
2022-09-24T02:34:03.176Z,2.22
2022-09-24T02:36:30.697Z,2.30
2022-09-24T02:38:58.258Z,2.75
2022-09-24T02:41:26.104Z,2.62
2022-09-24T02:43:53.439Z,2.58
2022-09-24T02:46:21.075Z,2.83
2022-09-24T02:48:48.404Z,2.53
2022-09-24T02:51:15.803Z,2.62
2022-09-24T02:53:43.399Z,2.00
2022-09-24T02:56:11.198Z,2.08
2022-09-24T02:58:38.738Z,2.20
2022-09-24T03:01:06.488Z,2.10
2022-09-24T03:03:34.039Z,2.35
2022-09-24T03:06:01.565Z,2.70
2022-09-24T03:08:30.213Z,2.47
2022-09-24T03:10:57.491Z,2.78
2022-09-24T03:13:24.814Z,2.55
2022-09-24T03:15:52.438Z,3.00
2022-09-24T03:18:20.011Z,2.70
2022-09-24T03:21:02.061Z,1.80
2022-09-24T03:23:29.669Z,2.20
2022-09-24T03:25:58.877Z,2.28
2022-09-24T03:28:27.234Z,2.10
2022-09-24T03:31:00.789Z,2.70
2022-09-24T03:33:43.800Z,1.50
2022-09-24T03:36:16.182Z,1.62
2022-09-24T03:38:45.531Z,2.12
2022-09-24T03:41:13.399Z,1.80
2022-09-24T03:43:40.762Z,1.92
2022-09-24T03:46:13.123Z,2.08
2022-09-24T03:51:19.077Z,1.85
2022-09-24T03:53:47.412Z,2.20
2022-09-24T03:56:14.706Z,2.10
2022-09-24T03:58:42.162Z,1.95
2022-09-24T04:01:12.072Z,1.80
2022-09-24T04:03:40.576Z,1.98
2022-09-24T04:06:08.114Z,2.30
2022-09-24T04:08:35.400Z,2.53
2022-09-24T04:11:03.042Z,2.10
2022-09-24T04:13:30.549Z,2.28
2022-09-24T04:16:02.173Z,2.25
2022-09-24T04:18:30.056Z,2.33
2022-09-24T04:20:58.946Z,2.05
2022-09-24T04:23:27.069Z,2.35
2022-09-24T04:25:54.653Z,2.50
2022-09-24T04:28:21.936Z,2.20
2022-09-24T04:30:49.284Z,1.87
2022-09-24T04:33:16.986Z,2.30
2022-09-24T04:35:45.873Z,1.95
2022-09-24T04:38:13.567Z,2.30
2022-09-24T04:40:41.372Z,2.42
2022-09-24T04:43:08.737Z,2.10
2022-09-24T04:45:38.360Z,2.12
2022-09-24T04:48:05.904Z,2.00
2022-09-24T04:50:33.288Z,2.03
2022-09-24T04:53:01.522Z,3.50
2022-09-24T04:55:29.133Z,4.43
2022-09-24T04:57:57.328Z,4.82
2022-09-24T05:00:24.966Z,4.72
2022-09-24T05:03:00.214Z,4.80
2022-09-24T05:05:28.177Z,4.37
2022-09-24T05:07:58.639Z,5.68
2022-09-24T05:10:26.372Z,3.50
2022-09-24T05:12:53.855Z,3.62
2022-09-24T05:15:21.819Z,3.70
2022-09-24T05:17:49.212Z,4.18
2022-09-24T05:20:16.870Z,3.58
2022-09-24T05:22:46.265Z,5.18
2022-09-24T05:25:14.619Z,7.15
2022-09-24T05:27:49.738Z,9.40
2022-09-24T05:30:46.558Z,9.52
2022-09-24T05:33:13.889Z,9.80
2022-09-24T05:36:04.624Z,15.80
2022-09-24T05:38:32.932Z,12.90
2022-09-24T05:41:00.647Z,10.23
2022-09-24T05:43:28.009Z,6.87
2022-09-24T05:45:58.514Z,9.48
2022-09-24T05:48:26.222Z,9.63
2022-09-24T05:50:55.393Z,15.52
2022-09-24T05:53:23.293Z,30.37
2022-09-24T05:55:50.898Z,26.52
2022-09-24T05:58:18.296Z,17.25
2022-09-24T06:00:46.005Z,15.13
2022-09-24T06:03:15.474Z,14.93
2022-09-24T06:05:49.990Z,8.35
2022-09-24T06:08:19.226Z,6.50
2022-09-24T06:10:47.373Z,6.65
2022-09-24T06:13:18.488Z,6.40
2022-09-24T06:15:46.471Z,5.87
2022-09-24T06:18:13.943Z,5.40
2022-09-24T06:20:41.224Z,5.28
2022-09-24T06:23:08.805Z,5.20
2022-09-24T06:25:36.093Z,4.97
2022-09-24T06:28:05.481Z,6.05
2022-09-24T06:30:41.312Z,5.72
2022-09-24T06:33:12.990Z,6.40
2022-09-24T06:35:42.453Z,5.87
2022-09-24T06:38:14.234Z,6.18
2022-09-24T06:40:43.170Z,6.32
2022-09-24T06:43:11.452Z,6.75
2022-09-24T06:45:38.734Z,7.75
2022-09-24T06:48:06.641Z,7.85
2022-09-24T06:50:35.048Z,7.62
2022-09-24T06:53:05.297Z,7.35
2022-09-24T06:55:34.127Z,10.48
2022-09-24T06:58:02.904Z,11.05
2022-09-24T07:00:30.476Z,10.55
2022-09-24T07:02:58.051Z,9.52
2022-09-24T07:05:25.375Z,9.95
2022-09-24T07:07:52.877Z,8.68
2022-09-24T07:10:20.889Z,9.85
2022-09-24T07:12:48.215Z,9.32
2022-09-24T07:15:15.543Z,8.82
2022-09-24T07:17:43.107Z,9.90
2022-09-24T07:20:10.438Z,9.07
2022-09-24T07:22:40.198Z,9.18
2022-09-24T07:25:11.924Z,9.50
2022-09-24T07:27:39.412Z,9.40
2022-09-24T07:30:08.612Z,9.05
2022-09-24T07:32:36.297Z,9.15
2022-09-24T07:35:04.205Z,9.65
2022-09-24T07:37:34.292Z,9.63
2022-09-24T07:40:01.960Z,9.60
2022-09-24T07:42:29.862Z,10.07
2022-09-24T07:44:57.427Z,10.18
2022-09-24T07:47:24.999Z,10.35
2022-09-24T07:49:52.534Z,10.25
2022-09-24T07:52:19.859Z,9.60
2022-09-24T07:54:47.394Z,9.38
2022-09-24T07:57:14.713Z,9.65
2022-09-24T07:59:42.251Z,11.07
2022-09-24T08:02:17.377Z,11.02
2022-09-24T08:04:45.272Z,10.88
2022-09-24T08:07:13.663Z,10.20
2022-09-24T08:09:41.097Z,10.88
2022-09-24T08:12:09.604Z,11.68
2022-09-24T08:14:37.033Z,10.63
2022-09-24T08:17:04.344Z,10.30
2022-09-24T08:19:33.540Z,9.32
2022-09-24T08:22:00.850Z,10.93
2022-09-24T08:24:28.231Z,9.85
2022-09-24T08:26:55.766Z,9.95
2022-09-24T08:29:23.060Z,8.95
2022-09-24T08:31:50.381Z,8.90
2022-09-24T08:34:18.305Z,9.50
2022-09-24T08:36:45.578Z,8.75
2022-09-24T08:39:13.704Z,9.20
2022-09-24T08:41:53.504Z,8.70
2022-09-24T08:44:44.944Z,8.18
2022-09-24T08:47:25.046Z,7.73
2022-09-24T08:50:11.629Z,7.28
2022-09-24T08:52:42.256Z,7.70
2022-09-24T08:55:24.331Z,7.72
2022-09-24T08:57:57.445Z,6.53
2022-09-24T09:00:25.367Z,7.00
2022-09-24T09:03:08.015Z,7.22
2022-09-24T09:08:55.028Z,6.90
2022-09-24T09:11:25.046Z,7.20
2022-09-24T09:14:01.125Z,6.87
2022-09-24T09:16:34.217Z,7.80
2022-09-24T09:19:06.489Z,7.12
2022-09-24T09:21:53.640Z,7.93
2022-09-24T09:24:26.996Z,9.63
2022-09-24T09:26:55.839Z,8.60
2022-09-24T09:29:25.968Z,8.77
2022-09-24T09:32:12.268Z,7.62
2022-09-24T09:34:54.403Z,6.93
2022-09-24T09:37:42.524Z,6.22
2022-09-24T09:40:50.810Z,5.80
2022-09-24T09:43:20.112Z,5.68
2022-09-24T09:46:07.719Z,5.70
2022-09-24T09:48:54.137Z,5.82
2022-09-24T09:51:24.903Z,5.22
2022-09-24T09:54:02.483Z,5.37
2022-09-24T09:56:37.436Z,4.70
2022-09-24T09:59:07.605Z,4.75
2022-09-24T10:01:37.310Z,4.45
2022-09-24T10:04:05.198Z,4.35
2022-09-24T10:06:34.639Z,3.55
2022-09-24T10:09:12.483Z,4.45
2022-09-24T10:11:40.826Z,4.18
2022-09-24T10:14:16.193Z,3.83
2022-09-24T10:16:46.073Z,4.37
2022-09-24T10:19:17.188Z,3.17
2022-09-24T10:21:44.801Z,3.73
2022-09-24T10:24:18.586Z,3.40
2022-09-24T10:26:46.541Z,3.22
2022-09-24T10:29:38.326Z,3.35
2022-09-24T10:32:07.035Z,2.70
2022-09-24T10:34:34.350Z,2.35
2022-09-24T10:37:08.650Z,2.30
2022-09-24T10:39:37.812Z,1.95
2022-09-24T10:42:07.565Z,2.33
2022-09-24T10:44:37.068Z,2.70
2022-09-24T10:47:27.211Z,2.60
2022-09-24T10:50:27.445Z,2.28
2022-09-24T10:52:54.907Z,2.50
2022-09-24T10:55:45.758Z,3.47
2022-09-24T10:58:37.910Z,2.00
2022-09-24T11:01:18.342Z,1.92
2022-09-24T11:04:20.226Z,2.00
2022-09-24T11:07:27.451Z,2.10
2022-09-24T11:10:51.284Z,1.92
2022-09-24T11:13:41.707Z,2.00
2022-09-24T11:16:28.455Z,1.98
2022-09-24T11:19:17.284Z,1.95
2022-09-24T11:22:07.108Z,2.17
2022-09-24T11:24:43.400Z,1.80
2022-09-24T11:27:29.095Z,2.20
2022-09-24T11:30:14.880Z,2.05
2022-09-24T11:32:57.589Z,2.85
2022-09-24T11:36:00.036Z,1.95
2022-09-24T11:41:21.277Z,1.73
2022-09-24T11:44:00.982Z,2.00
2022-09-24T11:46:47.330Z,1.98
2022-09-24T11:49:39.853Z,2.17
2022-09-24T11:52:36.173Z,1.80
2022-09-24T11:55:15.996Z,2.00
2022-09-24T11:57:48.921Z,2.28
2022-09-24T12:00:19.832Z,1.90
2022-09-24T12:02:50.485Z,1.42
2022-09-24T12:05:22.094Z,1.60
2022-09-24T12:07:54.247Z,1.65
2022-09-24T12:10:29.684Z,1.83
2022-09-24T12:13:04.160Z,2.30
2022-09-24T12:15:43.840Z,2.50
2022-09-24T12:18:21.638Z,29.20
2022-09-24T12:20:53.026Z,7.05
2022-09-24T12:23:29.823Z,2.70
2022-09-24T12:26:00.446Z,1.85
2022-09-24T12:28:54.366Z,2.20
2022-09-24T12:31:53.288Z,1.90
2022-09-24T12:34:34.516Z,1.75
2022-09-24T12:37:10.284Z,2.25
2022-09-24T12:39:45.516Z,1.80
2022-09-24T12:42:13.657Z,1.60
2022-09-24T12:44:54.369Z,1.62
2022-09-24T12:47:26.943Z,1.35
2022-09-24T12:49:57.291Z,2.08
2022-09-24T12:52:37.593Z,1.80
2022-09-24T12:55:06.216Z,1.92
2022-09-24T12:57:41.361Z,1.65
2022-09-24T13:00:34.169Z,1.70
2022-09-24T13:05:42.112Z,1.80
2022-09-24T13:08:19.906Z,2.10
2022-09-24T13:11:07.488Z,1.77
2022-09-24T13:13:40.794Z,1.70
2022-09-24T13:16:20.914Z,1.92
2022-09-24T13:18:56.223Z,1.80
2022-09-24T13:21:29.035Z,1.83
2022-09-24T13:23:57.062Z,2.03
2022-09-24T13:26:24.512Z,1.80
2022-09-24T13:29:00.897Z,1.65
2022-09-24T13:31:28.429Z,2.08
2022-09-24T13:34:11.744Z,2.55
2022-09-24T13:36:47.370Z,2.90
2022-09-24T13:39:41.669Z,2.85
2022-09-24T13:42:31.407Z,2.40
2022-09-24T13:45:07.554Z,1.77
2022-09-24T13:47:57.731Z,1.95
2022-09-24T13:50:28.009Z,2.40
2022-09-24T13:53:06.526Z,1.73
2022-09-24T13:55:43.238Z,1.52
2022-09-24T13:58:26.178Z,1.90
2022-09-24T14:00:54.082Z,1.58
2022-09-24T14:03:33.110Z,2.95
2022-09-24T14:06:01.752Z,14.23
2022-09-24T14:08:55.992Z,17.58
2022-09-24T14:11:27.544Z,17.75
2022-09-24T14:13:57.334Z,3.70
2022-09-24T14:16:25.801Z,2.00
2022-09-24T14:19:05.152Z,3.05
2022-09-24T14:21:47.180Z,2.17
2022-09-24T14:24:26.551Z,3.53
2022-09-24T14:27:01.060Z,2.85
2022-09-24T14:29:36.695Z,2.72
2022-09-24T14:32:06.095Z,9.23
2022-09-24T14:34:41.320Z,3.75
2022-09-24T14:37:17.981Z,11.38
2022-09-24T14:39:47.059Z,10.73
2022-09-24T14:42:23.375Z,5.97
2022-09-24T14:44:51.093Z,10.57
2022-09-24T14:47:33.424Z,8.00
2022-09-24T14:50:03.897Z,4.68
2022-09-24T14:52:37.929Z,5.45
2022-09-24T14:55:19.622Z,5.20
2022-09-24T14:57:50.939Z,3.08
2022-09-24T15:00:30.745Z,2.90
2022-09-24T15:03:13.669Z,2.85
2022-09-24T15:05:41.159Z,2.80
2022-09-24T15:08:29.568Z,2.53
2022-09-24T15:10:59.197Z,2.70
2022-09-24T15:13:31.013Z,2.78
2022-09-24T15:16:02.174Z,2.72
2022-09-24T15:18:29.812Z,2.60
2022-09-24T15:20:58.183Z,3.33
2022-09-24T15:23:25.813Z,3.78
2022-09-24T15:25:53.430Z,3.60
2022-09-24T15:28:22.736Z,3.40
2022-09-24T15:30:50.081Z,3.00
2022-09-24T15:33:18.299Z,3.40
2022-09-24T15:35:46.131Z,3.60
2022-09-24T15:38:15.371Z,5.22
2022-09-24T15:40:43.170Z,4.90
2022-09-24T15:43:22.727Z,3.60
2022-09-24T15:45:50.744Z,4.30
2022-09-24T15:48:18.255Z,4.90
2022-09-24T15:50:46.738Z,4.10
2022-09-24T15:53:20.663Z,3.70
2022-09-24T15:55:50.829Z,4.97
2022-09-24T15:58:19.753Z,6.10
2022-09-24T16:00:47.530Z,5.28
2022-09-24T16:03:21.210Z,4.60
2022-09-24T16:05:48.528Z,4.62
2022-09-24T16:08:16.432Z,5.32
2022-09-24T16:10:44.201Z,5.62
2022-09-24T16:13:12.468Z,4.97
2022-09-24T16:15:40.066Z,5.28
2022-09-24T16:18:14.661Z,5.78
2022-09-24T16:20:43.048Z,5.40
2022-09-24T16:23:14.416Z,5.40
2022-09-24T16:25:43.325Z,7.57
2022-09-24T16:28:10.756Z,12.18
2022-09-24T16:30:38.915Z,8.00
2022-09-24T16:33:06.603Z,7.70
2022-09-24T16:35:33.883Z,6.00
2022-09-24T16:38:01.416Z,5.35
2022-09-24T16:40:29.451Z,5.35
2022-09-24T16:42:57.109Z,4.95
2022-09-24T16:45:24.474Z,4.85
2022-09-24T16:47:52.039Z,5.30
2022-09-24T16:50:20.191Z,4.78
2022-09-24T16:52:49.255Z,5.10
2022-09-24T16:55:16.921Z,4.97
2022-09-24T16:57:44.281Z,5.32
2022-09-24T17:00:12.176Z,5.35
2022-09-24T17:02:39.769Z,5.90
2022-09-24T17:05:07.662Z,5.85
2022-09-24T17:07:55.537Z,5.15
2022-09-24T17:10:24.153Z,6.10
2022-09-24T17:12:51.735Z,5.65
2022-09-24T17:15:20.608Z,5.85
2022-09-24T17:17:50.465Z,5.85
2022-09-24T17:20:44.144Z,6.00
2022-09-24T17:23:11.709Z,6.57
2022-09-24T17:25:38.991Z,6.55
2022-09-24T17:28:07.121Z,7.53
2022-09-24T17:30:34.681Z,8.00
2022-09-24T17:33:08.104Z,7.90
2022-09-24T17:35:42.654Z,8.60
2022-09-24T17:38:09.950Z,8.65
2022-09-24T17:40:37.304Z,8.82
2022-09-24T17:43:04.860Z,8.13
2022-09-24T17:45:38.433Z,8.57
2022-09-24T17:48:06.009Z,8.40
2022-09-24T17:50:33.910Z,8.93
2022-09-24T17:53:03.677Z,9.65
2022-09-24T17:55:31.417Z,10.50
2022-09-24T17:57:58.769Z,10.73
2022-09-24T18:00:26.052Z,10.68
2022-09-24T18:02:54.739Z,10.90
2022-09-24T18:05:22.094Z,9.90
2022-09-24T18:07:49.731Z,9.20
2022-09-24T18:10:18.191Z,9.40
2022-09-24T18:12:45.494Z,8.85
2022-09-24T18:15:12.801Z,9.35
2022-09-24T18:17:40.391Z,9.52
2022-09-24T18:20:07.941Z,8.63
2022-09-24T18:22:55.445Z,9.00
2022-09-24T18:25:23.144Z,9.77
2022-09-24T18:27:50.771Z,8.95
2022-09-24T18:30:20.493Z,10.48
2022-09-24T18:32:48.065Z,10.05
2022-09-24T18:35:15.421Z,11.10
2022-09-24T18:37:42.853Z,14.00
2022-09-24T18:40:11.293Z,14.13
2022-09-24T18:42:38.696Z,14.30
2022-09-24T18:45:06.465Z,14.27
2022-09-24T18:47:38.282Z,13.05
2022-09-24T18:50:06.362Z,10.50
2022-09-24T18:52:34.211Z,11.18
2022-09-24T18:55:02.486Z,11.10
2022-09-24T18:57:29.834Z,10.07
2022-09-24T18:59:57.480Z,9.63
2022-09-24T19:02:26.304Z,10.57
2022-09-24T19:04:53.720Z,10.35
2022-09-24T19:07:21.311Z,9.52
2022-09-24T19:09:48.904Z,10.68
2022-09-24T19:12:17.326Z,15.15
2022-09-24T19:14:46.422Z,19.80
2022-09-24T19:17:13.758Z,21.20
2022-09-24T19:19:41.068Z,19.75
2022-09-24T19:22:08.678Z,18.05
2022-09-24T19:24:35.976Z,17.40
2022-09-24T19:27:03.355Z,14.32
2022-09-24T19:29:30.921Z,14.48
2022-09-24T19:31:58.340Z,11.35
2022-09-24T19:34:25.628Z,10.70
2022-09-24T19:36:54.949Z,9.10
2022-09-24T19:39:22.278Z,8.77
2022-09-24T19:41:52.755Z,8.77
2022-09-24T19:44:20.405Z,7.55
2022-09-24T19:46:47.726Z,8.10
2022-09-24T19:49:15.106Z,8.55
2022-09-24T19:51:42.719Z,7.40
2022-09-24T19:54:10.467Z,7.50
2022-09-24T19:56:38.036Z,7.40
2022-09-24T19:59:05.851Z,8.07
2022-09-24T20:01:33.532Z,8.13
2022-09-24T20:04:04.435Z,8.00
2022-09-24T20:06:33.605Z,8.65
2022-09-24T20:09:01.515Z,8.75
2022-09-24T20:11:32.215Z,7.18
2022-09-24T20:14:00.246Z,7.47
2022-09-24T20:16:30.906Z,5.55
2022-09-24T20:18:58.784Z,5.72
2022-09-24T20:21:27.934Z,6.25
2022-09-24T20:23:57.767Z,6.62
2022-09-24T20:26:44.365Z,6.22
2022-09-24T20:29:13.632Z,6.53
2022-09-24T20:31:52.370Z,7.40
2022-09-24T20:34:24.966Z,6.80
2022-09-24T20:36:52.304Z,6.80
2022-09-24T20:39:20.776Z,7.62
2022-09-24T20:41:49.226Z,9.02
2022-09-24T20:44:16.892Z,7.80
2022-09-24T20:46:44.646Z,6.75
2022-09-24T20:49:18.698Z,5.90
2022-09-24T20:51:46.250Z,6.05
2022-09-24T20:54:13.695Z,6.30
2022-09-24T20:56:42.085Z,5.80
2022-09-24T20:59:09.644Z,6.30
2022-09-24T21:01:37.485Z,5.80
2022-09-24T21:04:05.683Z,6.35
2022-09-24T21:06:33.444Z,6.68
2022-09-24T21:09:00.735Z,6.07
2022-09-24T21:11:28.092Z,6.55
2022-09-24T21:13:58.373Z,6.80
2022-09-24T21:16:28.193Z,6.57
2022-09-24T21:18:55.777Z,6.32
2022-09-24T21:21:26.176Z,6.00
2022-09-24T21:23:54.765Z,6.12
2022-09-24T21:26:24.126Z,5.93
2022-09-24T21:28:57.953Z,6.45
2022-09-24T21:31:31.693Z,6.05
2022-09-24T21:33:59.227Z,5.30
2022-09-24T21:36:29.448Z,5.82
2022-09-24T21:39:01.633Z,5.82
2022-09-24T21:41:33.911Z,6.00
2022-09-24T21:44:01.974Z,6.43
2022-09-24T21:46:31.276Z,6.65
2022-09-24T21:49:02.057Z,5.93
2022-09-24T21:51:30.315Z,6.00
2022-09-24T21:54:00.279Z,6.30
2022-09-24T21:56:28.978Z,6.20
2022-09-24T21:58:56.807Z,5.40
2022-09-24T22:01:27.732Z,6.47
2022-09-24T22:03:58.198Z,6.50
2022-09-24T22:06:28.815Z,6.40
2022-09-24T22:09:02.331Z,6.70
2022-09-24T22:11:31.209Z,6.28
2022-09-24T22:14:02.287Z,6.00
2022-09-24T22:16:35.031Z,5.70
2022-09-24T22:19:04.224Z,5.50
2022-09-24T22:21:32.153Z,5.22
2022-09-24T22:23:59.939Z,5.45
2022-09-24T22:26:29.512Z,5.60
2022-09-24T22:28:57.483Z,6.18
2022-09-24T22:31:25.354Z,5.53
2022-09-24T22:34:11.844Z,5.10
2022-09-24T22:36:39.220Z,5.47
2022-09-24T22:39:07.166Z,5.25
2022-09-24T22:41:37.803Z,5.53
2022-09-24T22:44:12.575Z,5.37
2022-09-24T22:46:41.285Z,5.28
2022-09-24T22:49:10.940Z,5.50
2022-09-24T22:51:39.238Z,5.10
2022-09-24T22:54:07.792Z,5.70
2022-09-24T22:56:35.754Z,5.72
2022-09-24T22:59:03.700Z,4.90
2022-09-24T23:01:39.856Z,5.43
2022-09-24T23:04:07.448Z,5.10
2022-09-24T23:06:35.130Z,5.72
2022-09-24T23:09:03.811Z,5.32
2022-09-24T23:11:33.240Z,5.32
2022-09-24T23:14:03.251Z,5.15
2022-09-24T23:16:35.779Z,5.03
2022-09-24T23:19:12.848Z,5.50
2022-09-24T23:21:40.417Z,5.15
2022-09-24T23:24:13.777Z,5.15
2022-09-24T23:26:41.189Z,5.57
2022-09-24T23:29:10.311Z,5.70
2022-09-24T23:31:37.616Z,5.00
2022-09-24T23:34:06.921Z,5.18
2022-09-24T23:36:35.556Z,6.40
2022-09-24T23:39:04.451Z,5.30
2022-09-24T23:41:32.203Z,6.12
2022-09-24T23:44:00.134Z,6.12
2022-09-24T23:46:27.993Z,5.75
2022-09-24T23:49:00.831Z,6.12
2022-09-24T23:51:28.423Z,6.15
2022-09-24T23:53:55.706Z,6.32
2022-09-24T23:56:23.317Z,6.85
2022-09-24T23:58:50.874Z,7.05
